EGAC/BHD METAR and TAF weather

Enter ICAO airport designator
Station Type Date Time Source
EGAC METAR 2021/03/02 02:50 UTC NOAA

EGAC 020250Z AUTO VRB03KT 4200 BR OVC009/// 02/01 Q1030


Station Type Date Time Source
EGAC Decoded METAR 2021/03/02 02:50 UTC NOAA

Belfast / Harbour, United Kingdom (EGAC) 54-36N 005-53W 0M
Mar 01, 2021 - 09:50 PM EST / 2021.03.02 0250 UTC
Wind: Variable at 3 MPH (3 KT):0
Visibility: 2 mile(s):0
Sky conditions: overcast
Weather: mist
Temperature: 35 F (2 C)
Dew Point: 33 F (1 C)
Relative Humidity: 93%
Pressure (altimeter): 30.42 in. Hg (1030 hPa)
ob: EGAC 020250Z AUTO VRB03KT 4200 BR OVC009/// 02/01 Q1030
cycle: 3

Station Type Date Time Source
EGAC TAF UTC NOAA

Error!

Example: see airport list